createdAt,value
2022-10-23T00:03:53.754Z,14.1
2022-10-23T00:13:54.196Z,14.3
2022-10-23T00:23:55.294Z,14.2
2022-10-23T00:33:55.655Z,14
2022-10-23T00:43:55.957Z,13.9
2022-10-23T00:54:01.012Z,13.7
2022-10-23T01:03:57.308Z,13.5
2022-10-23T01:23:58.526Z,13.3
2022-10-23T01:33:59.188Z,13.5
2022-10-23T01:43:59.242Z,13.6
2022-10-23T01:54:00.098Z,13.5
2022-10-23T02:04:00.371Z,13.4
2022-10-23T02:14:00.476Z,13.4
2022-10-23T02:34:02.423Z,13.5
2022-10-23T02:44:02.702Z,13.5
2022-10-23T03:14:03.411Z,13.2
2022-10-23T03:24:04.097Z,13.1
2022-10-23T03:34:05.192Z,13.1
2022-10-23T03:54:05.588Z,13.1
2022-10-23T04:04:06.408Z,13.2
2022-10-23T04:14:07.176Z,13
2022-10-23T04:24:07.556Z,13
2022-10-23T04:34:07.807Z,13
2022-10-23T04:44:08.652Z,13
2022-10-23T04:54:08.926Z,13.1
2022-10-23T05:04:09.233Z,13.2
2022-10-23T05:14:09.374Z,13.5
2022-10-23T05:24:10.002Z,13.5
2022-10-23T05:34:12.582Z,13.6
2022-10-23T05:44:10.696Z,13.5
2022-10-23T05:54:11.377Z,13.6
2022-10-23T06:04:11.547Z,13.6
2022-10-23T06:14:12.089Z,13.6
2022-10-23T06:24:13.124Z,13.6
2022-10-23T06:34:13.448Z,13.6
2022-10-23T06:44:13.526Z,13.7
2022-10-23T07:14:14.940Z,14.1
2022-10-23T07:24:15.861Z,14.2
2022-10-23T07:34:15.959Z,14.2
2022-10-23T07:54:17.016Z,14.5
2022-10-23T08:04:17.667Z,14.7
2022-10-23T08:14:18.305Z,15
2022-10-23T08:24:19.275Z,15.3
2022-10-23T08:34:19.522Z,15.7
2022-10-23T08:44:19.697Z,16
2022-10-23T08:54:19.787Z,16.5
2022-10-23T09:04:20.231Z,16.9
2022-10-23T09:14:20.375Z,17.1
2022-10-23T09:24:20.465Z,17.2
2022-10-23T09:34:20.542Z,17.2
2022-10-23T09:44:21.298Z,17.1
2022-10-23T09:54:22.015Z,17.2
2022-10-23T10:04:22.531Z,17.5
2022-10-23T10:14:23.297Z,17.7
2022-10-23T10:24:24.177Z,18.1
2022-10-23T10:34:24.763Z,18.4
2022-10-23T10:44:25.545Z,18.6
2022-10-23T11:04:26.510Z,18.7
2022-10-23T11:14:27.311Z,18.8
2022-10-23T11:24:27.713Z,18.9
2022-10-23T11:34:28.126Z,18.9
2022-10-23T11:54:29.569Z,19.2
2022-10-23T12:04:30.261Z,19.4
2022-10-23T12:14:31.250Z,19.5
2022-10-23T12:24:31.754Z,19.5
2022-10-23T12:34:32.328Z,19.6
2022-10-23T12:44:32.499Z,20.3
2022-10-23T12:54:33.020Z,20.4
2022-10-23T13:04:33.948Z,20.4
2022-10-23T13:24:35.042Z,20.6
2022-10-23T13:34:35.834Z,20.7
2022-10-23T13:44:36.763Z,20.5
2022-10-23T13:54:36.887Z,20.4
2022-10-23T14:04:37.466Z,20.3
2022-10-23T14:04:59.396Z,20.3
2022-10-23T14:14:43.269Z,20.2
2022-10-23T14:24:43.690Z,20.1
2022-10-23T14:34:44.238Z,20
2022-10-23T14:44:44.393Z,20
2022-10-23T15:04:45.186Z,19.8
2022-10-23T15:14:45.789Z,19.8
2022-10-23T15:24:46.423Z,19.7
2022-10-23T15:34:46.857Z,19.6
2022-10-23T15:44:47.208Z,19.3
2022-10-23T15:54:47.447Z,18.8
2022-10-23T16:04:47.730Z,18.4
2022-10-23T16:14:48.676Z,18.2
2022-10-23T16:24:49.454Z,18
2022-10-23T16:34:50.423Z,17.9
2022-10-23T16:44:51.888Z,17.5
2022-10-23T16:54:51.583Z,17.3
2022-10-23T17:24:54.091Z,16.9
2022-10-23T17:34:54.510Z,16.6
2022-10-23T17:54:56.266Z,16.3
2022-10-23T18:04:56.410Z,16.3
2022-10-23T18:14:57.349Z,16.3
2022-10-23T18:24:58.139Z,16.4
2022-10-23T18:34:58.266Z,16.3
2022-10-23T18:44:58.627Z,16.2
2022-10-23T18:54:59.387Z,16.1
2022-10-23T19:04:59.925Z,16.1
2022-10-23T19:15:00.841Z,16.3
2022-10-23T19:25:01.518Z,16.3
2022-10-23T19:35:01.782Z,16.4
2022-10-23T19:45:01.860Z,16.6
2022-10-23T20:05:02.444Z,16.9
2022-10-23T20:15:03.079Z,16.7
2022-10-23T20:25:03.866Z,17
2022-10-23T20:45:04.229Z,17.2
2022-10-23T20:55:04.679Z,17.2
2022-10-23T21:05:04.743Z,17.3
2022-10-23T21:15:05.509Z,17.6
2022-10-23T21:25:05.701Z,17
2022-10-23T21:35:06.248Z,16.6
2022-10-23T21:45:06.427Z,16.3
2022-10-23T21:55:07.023Z,16.2
2022-10-23T22:05:07.870Z,16.1
2022-10-23T22:15:08.851Z,16.2
2022-10-23T22:25:09.858Z,16.2
2022-10-23T22:35:10.724Z,16.3
2022-10-23T22:45:11.753Z,16.4
2022-10-23T22:55:12.466Z,16.4
2022-10-23T23:05:13.289Z,16.5
2022-10-23T23:15:13.828Z,16.5
2022-10-23T23:25:14.704Z,16.6
2022-10-23T23:35:15.280Z,16.5
2022-10-23T23:45:16.074Z,16.6
2022-10-23T23:55:16.833Z,16.6
